sensor_id;sensor_type;location;lat;lon;timestamp;P1;durP1;ratioP1;P2;durP2;ratioP2
42092;SDS011;28974;50.316;18.960;2023-02-28T00:07:34;68.30;;;20.00;;
42092;SDS011;28974;50.316;18.960;2023-02-28T00:19:34;68.18;;;19.70;;
42092;SDS011;28974;50.316;18.960;2023-02-28T00:31:35;56.63;;;20.15;;
42092;SDS011;28974;50.316;18.960;2023-02-28T00:43:36;71.82;;;23.40;;
42092;SDS011;28974;50.316;18.960;2023-02-28T00:55:37;72.63;;;22.73;;
42092;SDS011;28974;50.316;18.960;2023-02-28T01:07:38;63.50;;;22.38;;
42092;SDS011;28974;50.316;18.960;2023-02-28T01:19:38;57.95;;;20.98;;
42092;SDS011;28974;50.316;18.960;2023-02-28T01:31:39;44.92;;;17.63;;
42092;SDS011;28974;50.316;18.960;2023-02-28T01:55:42;42.80;;;16.02;;
42092;SDS011;28974;50.316;18.960;2023-02-28T02:07:45;51.35;;;16.60;;
42092;SDS011;28974;50.316;18.960;2023-02-28T02:32:02;36.90;;;14.85;;
42092;SDS011;28974;50.316;18.960;2023-02-28T02:44:12;37.13;;;14.10;;
42092;SDS011;28974;50.316;18.960;2023-02-28T02:56:16;38.00;;;15.17;;
42092;SDS011;28974;50.316;18.960;2023-02-28T03:08:19;47.90;;;16.65;;
42092;SDS011;28974;50.316;18.960;2023-02-28T03:32:27;43.92;;;17.00;;
42092;SDS011;28974;50.316;18.960;2023-02-28T03:44:30;37.80;;;14.93;;
42092;SDS011;28974;50.316;18.960;2023-02-28T03:56:33;56.03;;;18.40;;
42092;SDS011;28974;50.316;18.960;2023-02-28T04:08:34;45.35;;;16.33;;
42092;SDS011;28974;50.316;18.960;2023-02-28T04:20:35;42.03;;;17.05;;
42092;SDS011;28974;50.316;18.960;2023-02-28T04:32:35;41.92;;;16.50;;
42092;SDS011;28974;50.316;18.960;2023-02-28T04:44:35;45.00;;;17.20;;
42092;SDS011;28974;50.316;18.960;2023-02-28T04:56:36;40.03;;;16.67;;
42092;SDS011;28974;50.316;18.960;2023-02-28T05:08:36;51.53;;;18.58;;
42092;SDS011;28974;50.316;18.960;2023-02-28T05:20:37;54.30;;;18.05;;
42092;SDS011;28974;50.316;18.960;2023-02-28T05:32:38;53.15;;;18.70;;
42092;SDS011;28974;50.316;18.960;2023-02-28T05:44:38;61.90;;;20.63;;
42092;SDS011;28974;50.316;18.960;2023-02-28T05:56:39;56.25;;;17.65;;
42092;SDS011;28974;50.316;18.960;2023-02-28T06:08:40;72.53;;;21.02;;
42092;SDS011;28974;50.316;18.960;2023-02-28T06:20:43;88.43;;;21.95;;
42092;SDS011;28974;50.316;18.960;2023-02-28T06:32:43;56.72;;;19.02;;
42092;SDS011;28974;50.316;18.960;2023-02-28T06:44:44;55.53;;;19.27;;
42092;SDS011;28974;50.316;18.960;2023-02-28T06:56:44;50.15;;;18.85;;
42092;SDS011;28974;50.316;18.960;2023-02-28T07:08:45;62.17;;;22.65;;
42092;SDS011;28974;50.316;18.960;2023-02-28T07:20:45;63.92;;;23.77;;
42092;SDS011;28974;50.316;18.960;2023-02-28T07:32:45;71.60;;;27.23;;
42092;SDS011;28974;50.316;18.960;2023-02-28T07:44:46;66.10;;;24.40;;
42092;SDS011;28974;50.316;18.960;2023-02-28T07:56:46;55.60;;;21.13;;
42092;SDS011;28974;50.316;18.960;2023-02-28T08:08:47;48.15;;;20.83;;
42092;SDS011;28974;50.316;18.960;2023-02-28T08:20:47;44.35;;;20.60;;
42092;SDS011;28974;50.316;18.960;2023-02-28T08:32:48;56.95;;;24.15;;
42092;SDS011;28974;50.316;18.960;2023-02-28T08:44:49;76.00;;;23.63;;
42092;SDS011;28974;50.316;18.960;2023-02-28T08:56:49;48.40;;;18.60;;
42092;SDS011;28974;50.316;18.960;2023-02-28T09:08:50;48.90;;;19.13;;
42092;SDS011;28974;50.316;18.960;2023-02-28T09:20:50;46.05;;;18.08;;
42092;SDS011;28974;50.316;18.960;2023-02-28T09:32:52;45.35;;;20.27;;
42092;SDS011;28974;50.316;18.960;2023-02-28T09:44:53;48.28;;;20.35;;
42092;SDS011;28974;50.316;18.960;2023-02-28T09:57:05;44.17;;;19.00;;
42092;SDS011;28974;50.316;18.960;2023-02-28T10:09:24;42.03;;;17.17;;
42092;SDS011;28974;50.316;18.960;2023-02-28T10:33:33;44.20;;;15.43;;
42092;SDS011;28974;50.316;18.960;2023-02-28T10:45:34;42.83;;;15.75;;
42092;SDS011;28974;50.316;18.960;2023-02-28T10:57:37;28.25;;;14.00;;
42092;SDS011;28974;50.316;18.960;2023-02-28T11:09:40;43.28;;;17.73;;
42092;SDS011;28974;50.316;18.960;2023-02-28T11:21:45;37.13;;;16.03;;
42092;SDS011;28974;50.316;18.960;2023-02-28T11:33:49;41.42;;;18.40;;
42092;SDS011;28974;50.316;18.960;2023-02-28T11:57:53;47.97;;;19.60;;
42092;SDS011;28974;50.316;18.960;2023-02-28T12:10:17;51.28;;;19.35;;
42092;SDS011;28974;50.316;18.960;2023-02-28T12:34:35;47.92;;;19.55;;
42092;SDS011;28974;50.316;18.960;2023-02-28T12:58:45;33.88;;;17.13;;
42092;SDS011;28974;50.316;18.960;2023-02-28T13:10:48;46.30;;;21.50;;
42092;SDS011;28974;50.316;18.960;2023-02-28T13:22:54;57.20;;;19.67;;
42092;SDS011;28974;50.316;18.960;2023-02-28T14:11:04;45.80;;;19.23;;
42092;SDS011;28974;50.316;18.960;2023-02-28T14:23:31;42.33;;;18.55;;
42092;SDS011;28974;50.316;18.960;2023-02-28T14:47:27;56.22;;;21.50;;
42092;SDS011;28974;50.316;18.960;2023-02-28T15:11:29;47.38;;;21.08;;
42092;SDS011;28974;50.316;18.960;2023-02-28T15:23:29;48.30;;;20.52;;
42092;SDS011;28974;50.316;18.960;2023-02-28T15:35:31;41.13;;;18.23;;
42092;SDS011;28974;50.316;18.960;2023-02-28T15:47:31;49.67;;;20.17;;
42092;SDS011;28974;50.316;18.960;2023-02-28T15:59:32;65.50;;;23.98;;
42092;SDS011;28974;50.316;18.960;2023-02-28T16:11:33;56.83;;;21.65;;
42092;SDS011;28974;50.316;18.960;2023-02-28T16:23:35;73.78;;;25.70;;
42092;SDS011;28974;50.316;18.960;2023-02-28T16:35:35;77.57;;;28.40;;
42092;SDS011;28974;50.316;18.960;2023-02-28T16:47:35;74.25;;;29.27;;
42092;SDS011;28974;50.316;18.960;2023-02-28T16:59:36;126.13;;;43.50;;
42092;SDS011;28974;50.316;18.960;2023-02-28T17:11:36;104.03;;;35.97;;
42092;SDS011;28974;50.316;18.960;2023-02-28T17:23:37;106.78;;;36.42;;
42092;SDS011;28974;50.316;18.960;2023-02-28T17:35:37;111.43;;;43.35;;
42092;SDS011;28974;50.316;18.960;2023-02-28T17:47:37;88.43;;;34.38;;
42092;SDS011;28974;50.316;18.960;2023-02-28T17:59:38;95.05;;;37.80;;
42092;SDS011;28974;50.316;18.960;2023-02-28T18:11:40;100.45;;;40.22;;
42092;SDS011;28974;50.316;18.960;2023-02-28T18:23:42;134.93;;;50.92;;
42092;SDS011;28974;50.316;18.960;2023-02-28T18:35:54;131.75;;;50.47;;
42092;SDS011;28974;50.316;18.960;2023-02-28T18:47:54;148.70;;;54.15;;
42092;SDS011;28974;50.316;18.960;2023-02-28T18:59:55;138.73;;;54.22;;
42092;SDS011;28974;50.316;18.960;2023-02-28T19:11:55;138.38;;;54.28;;
42092;SDS011;28974;50.316;18.960;2023-02-28T19:23:55;158.60;;;59.08;;
42092;SDS011;28974;50.316;18.960;2023-02-28T19:35:58;160.50;;;64.05;;
42092;SDS011;28974;50.316;18.960;2023-02-28T19:47:58;154.35;;;60.25;;
42092;SDS011;28974;50.316;18.960;2023-02-28T19:59:59;149.23;;;57.88;;
42092;SDS011;28974;50.316;18.960;2023-02-28T20:11:59;211.00;;;73.45;;
42092;SDS011;28974;50.316;18.960;2023-02-28T20:24:00;286.90;;;92.53;;
42092;SDS011;28974;50.316;18.960;2023-02-28T20:36:00;393.10;;;137.82;;
42092;SDS011;28974;50.316;18.960;2023-02-28T20:48:01;411.48;;;139.32;;
42092;SDS011;28974;50.316;18.960;2023-02-28T21:00:02;374.88;;;125.97;;
42092;SDS011;28974;50.316;18.960;2023-02-28T21:12:02;385.38;;;126.55;;
42092;SDS011;28974;50.316;18.960;2023-02-28T21:24:03;410.77;;;137.10;;
42092;SDS011;28974;50.316;18.960;2023-02-28T21:36:05;367.00;;;124.20;;
42092;SDS011;28974;50.316;18.960;2023-02-28T21:48:05;365.35;;;120.63;;
42092;SDS011;28974;50.316;18.960;2023-02-28T22:00:06;361.95;;;116.18;;
42092;SDS011;28974;50.316;18.960;2023-02-28T22:12:12;324.85;;;100.85;;
42092;SDS011;28974;50.316;18.960;2023-02-28T22:24:13;370.73;;;116.45;;
42092;SDS011;28974;50.316;18.960;2023-02-28T22:36:14;355.65;;;120.05;;
42092;SDS011;28974;50.316;18.960;2023-02-28T22:48:15;347.02;;;111.13;;
42092;SDS011;28974;50.316;18.960;2023-02-28T23:00:15;317.05;;;102.05;;
42092;SDS011;28974;50.316;18.960;2023-02-28T23:12:17;262.77;;;92.13;;
42092;SDS011;28974;50.316;18.960;2023-02-28T23:24:18;268.00;;;81.50;;
42092;SDS011;28974;50.316;18.960;2023-02-28T23:36:20;288.58;;;91.72;;
42092;SDS011;28974;50.316;18.960;2023-02-28T23:48:20;260.92;;;87.40;;
